Aviation Digital Data Service (ADDS)

Output produced by METARs form (0220 UTC 22 April 2019)
found at http://www.aviationweather.gov/metar/data/
 
Forecast for: VTSB (SURAT THANI , TH)
Text: TAF VTSB 212300Z 2200/2224 VRB02KT 9000 FEW020
Forecast period: 0000 to 0400 UTC 22 April 2019
Forecast type: FROM: standard forecast or significant change
Winds: variable direction winds at 2 MPH (2 knots; 1.0 m/s)
Visibility: 6 miles (9 km)
Ceiling: at least 12,000 feet AGL
Clouds: few clouds at 2000 feet AGL
Weather: no significant weather forecast for this period
Text: BECMG 2204/2206 04010KT
Forecast period: 0400 to 1300 UTC 22 April 2019
Forecast type: BECOMING: Conditions expected to become as follows by 0600 UTC 22 April 2019
Winds: from the NE (40 degrees) at 12 MPH (10 knots; 5.1 m/s)
Visibility: 6 miles (9 km)
Ceiling: at least 12,000 feet AGL
Clouds: few clouds at 2000 feet AGL
Weather: no significant weather forecast for this period
Text: BECMG 2213/2215 VRB02KT
Forecast period: 1300 UTC 22 April 2019 to 0000 UTC 23 April 2019
Forecast type: BECOMING: Conditions expected to become as follows by 1500 UTC 22 April 2019
Winds: variable direction winds at 2 MPH (2 knots; 1.0 m/s)
Visibility: 6 miles (9 km)
Ceiling: at least 12,000 feet AGL
Clouds: few clouds at 2000 feet AGL
Weather: no significant weather forecast for this period